createdAt,value
2022-09-12T00:01:05.963Z,5.15
2022-09-12T00:03:34.171Z,4.70
2022-09-12T00:06:02.395Z,5.20
2022-09-12T00:08:30.595Z,4.50
2022-09-12T00:10:58.945Z,4.55
2022-09-12T00:13:28.558Z,4.75
2022-09-12T00:15:57.075Z,4.47
2022-09-12T00:18:25.351Z,4.55
2022-09-12T00:20:53.626Z,4.63
2022-09-12T00:23:22.203Z,4.32
2022-09-12T00:25:50.565Z,4.45
2022-09-12T00:28:19.945Z,4.25
2022-09-12T00:30:50.063Z,4.15
2022-09-12T00:33:19.156Z,4.38
2022-09-12T00:35:48.895Z,4.13
2022-09-12T00:38:18.325Z,4.00
2022-09-12T00:40:46.756Z,4.05
2022-09-12T00:43:16.409Z,3.90
2022-09-12T00:45:45.123Z,3.77
2022-09-12T00:48:24.648Z,3.63
2022-09-12T00:50:52.841Z,4.00
2022-09-12T00:53:21.396Z,3.95
2022-09-12T00:55:51.390Z,4.32
2022-09-12T00:58:22.856Z,4.53
2022-09-12T01:00:51.161Z,4.82
2022-09-12T01:03:22.094Z,4.72
2022-09-12T01:05:56.827Z,4.40
2022-09-12T01:08:26.140Z,4.80
2022-09-12T01:10:54.426Z,4.63
2022-09-12T01:13:23.398Z,4.68
2022-09-12T01:15:52.720Z,4.70
2022-09-12T01:18:28.565Z,4.90
2022-09-12T01:21:07.052Z,4.82
2022-09-12T01:24:19.637Z,3.80
2022-09-12T01:27:23.618Z,4.03
2022-09-12T01:30:19.553Z,3.88
2022-09-12T01:32:59.293Z,5.55
2022-09-12T01:35:32.734Z,3.73
2022-09-12T01:38:10.383Z,3.42
2022-09-12T01:40:44.834Z,3.60
2022-09-12T01:43:20.634Z,3.38
2022-09-12T01:45:53.061Z,3.60
2022-09-12T01:48:25.304Z,3.45
2022-09-12T01:50:55.956Z,3.40
2022-09-12T01:55:57.640Z,2.70
2022-09-12T01:58:29.157Z,3.40
2022-09-12T02:01:03.513Z,3.35
2022-09-12T02:03:35.747Z,3.80
2022-09-12T02:06:08.534Z,3.90
2022-09-12T02:08:39.926Z,3.67
2022-09-12T02:11:09.579Z,3.70
2022-09-12T02:13:41.279Z,3.67
2022-09-12T02:16:11.646Z,3.28
2022-09-12T02:18:48.504Z,3.22
2022-09-12T02:21:17.401Z,3.08
2022-09-12T02:23:49.571Z,3.35
2022-09-12T02:26:21.771Z,3.30
2022-09-12T02:28:50.468Z,3.33
2022-09-12T02:31:23.824Z,3.70
2022-09-12T02:34:05.661Z,3.60
2022-09-12T02:36:40.086Z,3.40
2022-09-12T02:39:08.519Z,3.20
2022-09-12T02:41:37.220Z,3.10
2022-09-12T02:44:06.114Z,3.65
2022-09-12T02:46:38.998Z,3.25
2022-09-12T02:49:09.533Z,3.63
2022-09-12T02:54:07.486Z,3.25
2022-09-12T02:56:35.938Z,3.90
2022-09-12T02:59:06.809Z,3.50
2022-09-12T03:01:50.368Z,3.15
2022-09-12T03:04:38.846Z,2.90
2022-09-12T03:07:13.962Z,2.85
2022-09-12T03:09:47.588Z,2.90
2022-09-12T03:12:25.882Z,2.67
2022-09-12T03:15:07.701Z,2.95
2022-09-12T03:17:45.290Z,2.90
2022-09-12T03:20:17.494Z,2.90
2022-09-12T03:22:53.495Z,2.42
2022-09-12T03:25:24.849Z,2.90
2022-09-12T03:27:56.874Z,2.97
2022-09-12T03:30:25.628Z,3.28
2022-09-12T03:32:55.390Z,3.25
2022-09-12T03:35:26.316Z,3.23
2022-09-12T03:37:54.678Z,3.10
2022-09-12T03:40:22.960Z,3.40
2022-09-12T03:42:51.281Z,3.17
2022-09-12T03:45:19.591Z,4.50
2022-09-12T03:47:47.862Z,3.80
2022-09-12T03:50:16.226Z,3.10
2022-09-12T03:52:45.892Z,2.67
2022-09-12T03:55:14.315Z,2.50
2022-09-12T03:57:42.590Z,2.80
2022-09-12T04:00:11.395Z,3.17
2022-09-12T04:02:39.696Z,3.30
2022-09-12T04:05:08.320Z,3.72
2022-09-12T04:07:36.656Z,3.80
2022-09-12T04:10:07.211Z,4.50
2022-09-12T04:15:04.431Z,4.75
2022-09-12T04:17:32.763Z,4.82
2022-09-12T04:20:01.161Z,5.03
2022-09-12T04:22:30.113Z,4.95
2022-09-12T04:24:58.474Z,4.47
2022-09-12T04:27:28.321Z,4.50
2022-09-12T04:29:57.411Z,4.93
2022-09-12T04:32:25.929Z,5.15
2022-09-12T04:34:54.358Z,4.85
2022-09-12T04:37:23.713Z,4.10
2022-09-12T04:39:56.182Z,3.92
2022-09-12T04:42:24.600Z,4.53
2022-09-12T04:44:54.718Z,4.40
2022-09-12T04:47:23.200Z,4.55
2022-09-12T04:49:52.452Z,4.00
2022-09-12T04:52:20.858Z,4.15
2022-09-12T04:54:49.189Z,4.30
2022-09-12T04:57:17.653Z,4.07
2022-09-12T04:59:46.100Z,3.50
2022-09-12T05:02:16.305Z,3.60
2022-09-12T05:04:44.852Z,3.40
2022-09-12T05:07:13.138Z,3.40
2022-09-12T05:09:41.630Z,3.00
2022-09-12T05:12:10.158Z,3.15
2022-09-12T05:14:38.430Z,3.30
2022-09-12T05:17:06.992Z,2.88
2022-09-12T05:19:38.005Z,2.70
2022-09-12T05:22:06.867Z,2.60
2022-09-12T05:24:35.513Z,2.60
2022-09-12T05:27:04.818Z,2.47
2022-09-12T05:29:34.100Z,2.25
2022-09-12T05:32:02.966Z,2.60
2022-09-12T05:34:31.502Z,2.75
2022-09-12T05:37:01.242Z,2.80
2022-09-12T05:39:29.726Z,2.70
2022-09-12T05:41:57.999Z,2.90
2022-09-12T05:44:26.789Z,2.80
2022-09-12T05:46:55.105Z,3.05
2022-09-12T05:49:23.456Z,3.15
2022-09-12T05:51:52.686Z,3.03
2022-09-12T05:54:22.959Z,3.13
2022-09-12T05:56:51.280Z,2.95
2022-09-12T05:59:21.182Z,3.33
2022-09-12T06:01:49.945Z,3.28
2022-09-12T06:04:18.714Z,3.28
2022-09-12T06:06:48.738Z,3.08
2022-09-12T06:09:18.016Z,3.17
2022-09-12T06:11:48.186Z,2.65
2022-09-12T06:14:17.589Z,2.83
2022-09-12T06:16:47.243Z,2.88
2022-09-12T06:19:17.852Z,2.67
2022-09-12T06:21:47.553Z,2.50
2022-09-12T06:24:15.974Z,2.70
2022-09-12T06:26:44.694Z,2.70
2022-09-12T06:29:14.767Z,2.67
2022-09-12T06:31:44.381Z,2.90
2022-09-12T06:34:14.405Z,3.33
2022-09-12T06:36:44.284Z,3.03
2022-09-12T06:39:14.066Z,3.20
2022-09-12T06:44:29.901Z,3.15
2022-09-12T06:46:58.782Z,3.27
2022-09-12T06:49:27.123Z,3.50
2022-09-12T06:51:55.376Z,2.90
2022-09-12T06:54:23.735Z,3.10
2022-09-12T06:56:52.171Z,3.63
2022-09-12T06:59:20.458Z,3.30
2022-09-12T07:01:50.947Z,3.35
2022-09-12T07:04:19.924Z,3.20
2022-09-12T07:06:48.320Z,3.45
2022-09-12T07:09:17.418Z,3.38
2022-09-12T07:11:47.293Z,3.25
2022-09-12T07:14:16.233Z,3.72
2022-09-12T07:16:45.083Z,3.80
2022-09-12T07:19:14.843Z,4.03
2022-09-12T07:21:43.184Z,3.75
2022-09-12T07:24:11.779Z,3.92
2022-09-12T07:26:42.245Z,3.85
2022-09-12T07:32:04.242Z,4.00
2022-09-12T07:34:34.137Z,3.75
2022-09-12T07:37:02.453Z,3.80
2022-09-12T07:39:30.805Z,3.60
2022-09-12T07:42:00.457Z,3.20
2022-09-12T07:44:29.415Z,3.43
2022-09-12T07:46:57.728Z,3.20
2022-09-12T07:49:26.053Z,3.08
2022-09-12T07:51:55.808Z,2.97
2022-09-12T07:54:24.425Z,3.08
2022-09-12T07:56:52.859Z,3.50
2022-09-12T07:59:41.402Z,3.65
2022-09-12T08:02:16.839Z,3.63
2022-09-12T08:04:46.780Z,3.35
2022-09-12T08:07:18.379Z,3.35
2022-09-12T08:09:47.345Z,3.35
2022-09-12T08:12:16.584Z,3.50
2022-09-12T08:17:30.553Z,3.30
2022-09-12T08:19:58.916Z,3.22
2022-09-12T08:22:28.631Z,3.00
2022-09-12T08:24:56.981Z,3.08
2022-09-12T08:27:25.367Z,3.42
2022-09-12T08:29:53.802Z,3.50
2022-09-12T08:32:22.314Z,3.20
2022-09-12T08:34:50.564Z,3.30
2022-09-12T08:37:20.495Z,3.10
2022-09-12T08:39:50.221Z,2.83
2022-09-12T08:42:25.770Z,2.70
2022-09-12T08:45:06.775Z,2.50
2022-09-12T08:47:37.449Z,2.42
2022-09-12T08:50:13.075Z,2.83
2022-09-12T08:52:46.271Z,2.47
2022-09-12T08:55:32.726Z,2.95
2022-09-12T08:58:02.079Z,3.30
2022-09-12T09:00:38.945Z,2.63
2022-09-12T09:03:38.743Z,3.00
2022-09-12T09:06:14.385Z,2.80
2022-09-12T09:08:58.744Z,3.00
2022-09-12T09:11:41.789Z,3.13
2022-09-12T09:14:44.495Z,3.28
2022-09-12T09:17:16.063Z,3.40
2022-09-12T09:22:44.559Z,3.85
2022-09-12T09:25:22.072Z,3.30
2022-09-12T09:27:57.711Z,4.13
2022-09-12T09:30:26.015Z,3.78
2022-09-12T09:32:56.545Z,4.15
2022-09-12T09:35:36.315Z,3.80
2022-09-12T09:40:46.348Z,3.75
2022-09-12T09:43:22.885Z,4.32
2022-09-12T09:45:51.844Z,4.50
2022-09-12T09:48:21.198Z,4.50
2022-09-12T09:50:50.452Z,4.05
2022-09-12T09:53:27.803Z,4.80
2022-09-12T09:55:56.945Z,4.22
2022-09-12T09:58:33.915Z,3.83
2022-09-12T10:01:03.603Z,3.25
2022-09-12T10:03:33.980Z,3.50
2022-09-12T10:08:32.806Z,3.50
2022-09-12T10:11:03.262Z,3.60
2022-09-12T10:13:47.980Z,3.40
2022-09-12T10:16:22.588Z,3.78
2022-09-12T10:18:52.554Z,3.88
2022-09-12T10:21:28.047Z,3.97
2022-09-12T10:24:03.231Z,4.13
2022-09-12T10:26:37.306Z,3.50
2022-09-12T10:29:13.806Z,4.30
2022-09-12T10:31:46.313Z,3.80
2022-09-12T10:34:24.021Z,3.10
2022-09-12T10:36:54.984Z,3.55
2022-09-12T10:39:24.043Z,3.50
2022-09-12T10:41:52.334Z,3.42
2022-09-12T10:44:27.353Z,3.00
2022-09-12T10:46:55.898Z,4.35
2022-09-12T10:49:27.762Z,2.67
2022-09-12T10:51:59.424Z,2.80
2022-09-12T10:54:29.565Z,2.60
2022-09-12T10:57:18.020Z,3.60
2022-09-12T11:00:06.569Z,3.05
2022-09-12T11:02:52.200Z,3.78
2022-09-12T11:05:36.841Z,3.13
2022-09-12T11:08:13.297Z,3.42
2022-09-12T11:10:46.692Z,3.55
2022-09-12T11:13:22.732Z,3.70
2022-09-12T11:16:07.473Z,2.60
2022-09-12T11:19:05.037Z,2.78
2022-09-12T11:21:45.112Z,2.75
2022-09-12T11:24:35.147Z,3.33
2022-09-12T11:27:13.968Z,3.45
2022-09-12T11:29:50.986Z,3.38
2022-09-12T11:32:47.010Z,2.55
2022-09-12T11:35:20.852Z,2.38
2022-09-12T11:38:01.073Z,2.70
2022-09-12T11:40:33.650Z,2.92
2022-09-12T11:43:05.790Z,2.83
2022-09-12T11:45:38.820Z,3.00
2022-09-12T11:48:11.962Z,3.10
2022-09-12T11:50:40.264Z,2.92
2022-09-12T11:53:17.098Z,3.40
2022-09-12T11:55:54.973Z,2.60
2022-09-12T11:58:26.211Z,3.10
2022-09-12T12:00:57.477Z,2.55
2022-09-12T12:03:33.284Z,3.13
2022-09-12T12:06:05.861Z,3.38
2022-09-12T12:08:39.491Z,2.90
2022-09-12T12:11:09.107Z,2.53
2022-09-12T12:13:39.708Z,2.70
2022-09-12T12:16:09.859Z,2.33
2022-09-12T12:18:40.438Z,2.50
2022-09-12T12:21:23.150Z,2.63
2022-09-12T12:24:05.241Z,2.33
2022-09-12T12:26:47.457Z,2.55
2022-09-12T12:29:40.364Z,2.10
2022-09-12T12:32:27.742Z,2.60
2022-09-12T12:35:39.518Z,2.55
2022-09-12T12:38:29.318Z,2.47
2022-09-12T12:41:45.334Z,2.70
2022-09-12T12:44:48.993Z,2.30
2022-09-12T12:47:20.256Z,2.47
2022-09-12T12:49:53.556Z,2.50
2022-09-12T12:52:23.327Z,2.10
2022-09-12T12:54:54.715Z,2.58
2022-09-12T12:57:42.753Z,2.10
2022-09-12T13:00:30.043Z,2.35
2022-09-12T13:03:01.247Z,2.50
2022-09-12T13:05:32.152Z,2.03
2022-09-12T13:08:04.829Z,2.08
2022-09-12T13:10:33.246Z,2.00
2022-09-12T13:13:05.254Z,2.33
2022-09-12T13:15:57.220Z,1.90
2022-09-12T13:18:28.689Z,2.10
2022-09-12T13:21:02.382Z,2.30
2022-09-12T13:23:33.996Z,2.28
2022-09-12T13:26:03.399Z,2.65
2022-09-12T13:28:32.314Z,2.22
2022-09-12T13:31:03.045Z,2.30
2022-09-12T13:33:36.232Z,2.10
2022-09-12T13:36:44.257Z,2.40
2022-09-12T13:39:34.091Z,2.20
2022-09-12T13:42:17.912Z,2.10
2022-09-12T13:44:48.905Z,2.22
2022-09-12T13:47:26.523Z,2.05
2022-09-12T13:49:55.789Z,2.10
2022-09-12T13:52:27.287Z,2.07
2022-09-12T13:54:59.566Z,2.40
2022-09-12T13:57:31.078Z,2.10
2022-09-12T14:00:00.444Z,1.80
2022-09-12T14:02:31.303Z,2.27
2022-09-12T14:05:09.109Z,2.58
2022-09-12T14:07:53.362Z,2.20
2022-09-12T14:10:28.184Z,2.20
2022-09-12T14:12:57.319Z,2.30
2022-09-12T14:15:28.784Z,2.28
2022-09-12T14:18:01.489Z,2.33
2022-09-12T14:20:32.754Z,2.60
2022-09-12T14:23:03.070Z,2.28
2022-09-12T14:25:39.088Z,2.17
2022-09-12T14:28:07.612Z,2.40
2022-09-12T14:30:37.358Z,2.03
2022-09-12T14:33:20.801Z,2.40
2022-09-12T14:35:50.279Z,2.40
2022-09-12T14:38:33.009Z,2.17
2022-09-12T14:41:04.389Z,2.00
2022-09-12T14:43:34.726Z,2.15
2022-09-12T14:46:04.735Z,2.10
2022-09-12T14:48:36.382Z,2.30
2022-09-12T14:51:05.308Z,2.15
2022-09-12T14:53:34.997Z,2.10
2022-09-12T14:56:12.734Z,1.98
2022-09-12T14:58:42.202Z,1.98
2022-09-12T15:01:25.441Z,2.20
2022-09-12T15:03:57.282Z,1.88
2022-09-12T15:06:29.748Z,1.80
2022-09-12T15:08:59.380Z,1.98
2022-09-12T15:11:29.217Z,1.90
2022-09-12T15:13:57.656Z,1.90
2022-09-12T15:16:26.055Z,1.90
2022-09-12T15:18:54.367Z,2.00
2022-09-12T15:21:22.617Z,2.00
2022-09-12T15:23:51.827Z,1.77
2022-09-12T15:26:21.778Z,2.15
2022-09-12T15:28:52.067Z,1.88
2022-09-12T15:31:25.385Z,2.45
2022-09-12T15:33:54.398Z,2.05
2022-09-12T15:36:23.976Z,2.00
2022-09-12T15:38:53.013Z,1.85
2022-09-12T15:41:23.246Z,1.98
2022-09-12T15:46:21.548Z,1.98
2022-09-12T15:48:50.170Z,1.70
2022-09-12T15:51:20.416Z,1.70
2022-09-12T15:56:18.532Z,1.88
2022-09-12T15:58:58.249Z,1.70
2022-09-12T16:01:29.850Z,1.70
2022-09-12T16:03:58.439Z,1.95
2022-09-12T16:06:27.905Z,2.08
2022-09-12T16:08:56.270Z,1.92
2022-09-12T16:11:26.467Z,1.70
2022-09-12T16:16:23.484Z,1.90
2022-09-12T16:18:53.272Z,1.85
2022-09-12T16:21:21.690Z,1.90
2022-09-12T16:23:50.343Z,2.10
2022-09-12T16:26:18.811Z,2.10
2022-09-12T16:28:47.305Z,2.30
2022-09-12T16:31:16.058Z,2.03
2022-09-12T16:33:44.352Z,2.00
2022-09-12T16:36:15.716Z,1.90
2022-09-12T16:38:44.637Z,1.85
2022-09-12T16:41:13.868Z,2.20
2022-09-12T16:43:42.908Z,2.08
2022-09-12T16:46:13.744Z,1.90
2022-09-12T16:48:49.385Z,2.00
2022-09-12T16:51:22.914Z,1.98
2022-09-12T16:53:51.776Z,2.13
2022-09-12T16:56:20.843Z,1.95
2022-09-12T16:58:49.252Z,2.17
2022-09-12T17:01:19.262Z,1.90
2022-09-12T17:03:47.748Z,2.00
2022-09-12T17:06:18.101Z,2.30
2022-09-12T17:11:18.618Z,2.28
2022-09-12T17:14:04.027Z,2.33
2022-09-12T17:16:34.342Z,2.40
2022-09-12T17:19:02.884Z,2.42
2022-09-12T17:21:31.179Z,2.70
2022-09-12T17:24:00.839Z,2.83
2022-09-12T17:26:29.155Z,3.05
2022-09-12T17:28:57.442Z,3.63
2022-09-12T17:31:26.710Z,4.40
2022-09-12T17:33:58.050Z,4.03
2022-09-12T17:36:27.048Z,3.33
2022-09-12T17:38:55.555Z,3.60
2022-09-12T17:41:26.317Z,3.28
2022-09-12T17:43:57.375Z,3.33
2022-09-12T17:46:27.166Z,3.60
2022-09-12T17:48:57.342Z,3.83
2022-09-12T17:51:28.907Z,3.70
2022-09-12T17:54:00.116Z,4.05
2022-09-12T17:56:31.800Z,4.25
2022-09-12T17:59:00.887Z,4.07
2022-09-12T18:01:47.955Z,3.97
2022-09-12T18:04:16.785Z,3.40
2022-09-12T18:06:48.144Z,3.80
2022-09-12T18:09:17.794Z,3.97
2022-09-12T18:11:48.475Z,4.33
2022-09-12T18:14:17.502Z,4.30
2022-09-12T18:16:46.267Z,4.35
2022-09-12T18:19:15.180Z,4.35
2022-09-12T18:21:43.499Z,3.83
2022-09-12T18:24:12.059Z,4.30
2022-09-12T18:26:40.397Z,3.88
2022-09-12T18:29:10.098Z,4.18
2022-09-12T18:31:38.424Z,3.90
2022-09-12T18:34:12.556Z,4.50
2022-09-12T18:36:41.549Z,4.30
2022-09-12T18:39:09.840Z,4.55
2022-09-12T18:41:39.005Z,4.53
2022-09-12T18:44:08.334Z,4.22
2022-09-12T18:46:38.144Z,3.97
2022-09-12T18:49:07.471Z,4.25
2022-09-12T18:51:37.241Z,4.30
2022-09-12T18:54:07.347Z,4.00
2022-09-12T18:56:38.406Z,4.07
2022-09-12T18:59:08.077Z,4.10
2022-09-12T19:01:38.845Z,3.97
2022-09-12T19:04:08.031Z,3.80
2022-09-12T19:06:37.747Z,4.25
2022-09-12T19:09:08.241Z,3.67
2022-09-12T19:11:38.433Z,3.63
2022-09-12T19:14:07.715Z,3.85
2022-09-12T19:16:37.472Z,4.53
2022-09-12T19:19:06.241Z,4.35
2022-09-12T19:21:35.415Z,4.60
2022-09-12T19:24:05.778Z,4.93
2022-09-12T19:26:34.671Z,4.82
2022-09-12T19:29:03.555Z,3.80
2022-09-12T19:31:32.490Z,4.72
2022-09-12T19:34:03.200Z,4.75
2022-09-12T19:36:44.979Z,4.75
2022-09-12T19:39:14.281Z,5.00
2022-09-12T19:41:42.632Z,4.95
2022-09-12T19:44:11.590Z,5.00
2022-09-12T19:46:40.379Z,4.95
2022-09-12T19:49:11.102Z,4.80
2022-09-12T19:51:39.549Z,5.35
2022-09-12T19:54:07.912Z,5.20
2022-09-12T19:56:36.268Z,5.03
2022-09-12T19:59:04.553Z,5.72
2022-09-12T20:01:33.281Z,5.20
2022-09-12T20:04:01.911Z,5.43
2022-09-12T20:06:31.647Z,5.90
2022-09-12T20:09:00.116Z,6.60
2022-09-12T20:11:28.382Z,6.18
2022-09-12T20:13:56.740Z,5.80
2022-09-12T20:16:29.156Z,5.60
2022-09-12T20:18:59.329Z,5.88
2022-09-12T20:21:31.442Z,5.75
2022-09-12T20:24:06.035Z,5.30
2022-09-12T20:26:34.789Z,4.97
2022-09-12T20:29:03.310Z,4.85
2022-09-12T20:31:31.995Z,4.88
2022-09-12T20:34:00.668Z,4.90
2022-09-12T20:36:29.388Z,4.97
2022-09-12T20:39:00.192Z,5.40
2022-09-12T20:41:34.065Z,5.45
2022-09-12T20:44:02.462Z,4.90
2022-09-12T20:46:30.873Z,5.38
2022-09-12T20:48:59.545Z,5.22
2022-09-12T20:51:29.694Z,5.00
2022-09-12T20:53:58.746Z,5.38
2022-09-12T20:56:29.386Z,5.10
2022-09-12T20:58:57.787Z,5.60
2022-09-12T21:01:27.412Z,5.07
2022-09-12T21:03:55.888Z,5.10
2022-09-12T21:06:24.707Z,5.35
2022-09-12T21:08:54.073Z,5.07
2022-09-12T21:11:22.438Z,5.25
2022-09-12T21:13:52.750Z,5.35
2022-09-12T21:16:22.711Z,4.88
2022-09-12T21:18:54.784Z,5.40
2022-09-12T21:21:23.261Z,5.57
2022-09-12T21:23:51.811Z,5.35
2022-09-12T21:26:20.092Z,5.10
2022-09-12T21:28:49.592Z,5.68
2022-09-12T21:31:19.243Z,5.50
2022-09-12T21:33:47.702Z,5.97
2022-09-12T21:36:16.114Z,5.85
2022-09-12T21:38:44.454Z,5.72
2022-09-12T21:41:13.952Z,6.28
2022-09-12T21:43:42.714Z,6.15
2022-09-12T21:46:11.641Z,5.57
2022-09-12T21:48:41.477Z,5.90
2022-09-12T21:51:09.841Z,5.80
2022-09-12T21:53:38.126Z,5.88
2022-09-12T21:56:08.236Z,6.65
2022-09-12T21:58:37.077Z,5.85
2022-09-12T22:01:08.561Z,5.80
2022-09-12T22:03:36.966Z,5.55
2022-09-12T22:06:07.622Z,5.90
2022-09-12T22:08:37.345Z,6.68
2022-09-12T22:11:09.678Z,6.93
2022-09-12T22:13:39.379Z,5.85
2022-09-12T22:16:08.519Z,5.67
2022-09-12T22:18:38.144Z,5.82
2022-09-12T22:21:09.616Z,5.70
2022-09-12T22:23:55.533Z,4.50
2022-09-12T22:26:24.014Z,4.65
2022-09-12T22:28:52.466Z,4.82
2022-09-12T22:31:20.967Z,5.70
2022-09-12T22:33:51.535Z,6.20
2022-09-12T22:38:49.383Z,5.75
2022-09-12T22:41:17.923Z,5.65
2022-09-12T22:43:46.377Z,6.55
2022-09-12T22:46:14.720Z,5.95
2022-09-12T22:48:43.204Z,5.55
2022-09-12T22:51:12.124Z,6.40
2022-09-12T22:53:41.832Z,6.28
2022-09-12T22:56:10.533Z,6.67
2022-09-12T22:58:38.884Z,7.00
2022-09-12T23:01:07.640Z,6.70
2022-09-12T23:03:36.471Z,7.00
2022-09-12T23:06:05.080Z,7.28
2022-09-12T23:08:34.724Z,6.90
2022-09-12T23:11:06.496Z,6.07
2022-09-12T23:13:34.844Z,4.97
2022-09-12T23:16:05.645Z,6.38
2022-09-12T23:18:35.768Z,7.30
2022-09-12T23:21:06.185Z,6.57
2022-09-12T23:23:34.996Z,5.70
2022-09-12T23:26:06.874Z,5.93
2022-09-12T23:28:35.481Z,5.70
2022-09-12T23:31:04.434Z,5.88
2022-09-12T23:33:33.533Z,6.82
2022-09-12T23:36:02.203Z,7.55
2022-09-12T23:38:31.048Z,7.07
2022-09-12T23:40:59.624Z,5.82
2022-09-12T23:43:29.606Z,4.93
2022-09-12T23:45:58.489Z,4.88
2022-09-12T23:48:27.147Z,5.75
2022-09-12T23:50:55.632Z,6.18
2022-09-12T23:53:24.301Z,6.30
2022-09-12T23:55:52.844Z,6.80
2022-09-12T23:58:21.675Z,7.20
